sensor_id;sensor_type;location;lat;lon;timestamp;temperature;humidity
18337;DHT22;9294;51.106;7.028;2023-08-12T00:01:48;22.70;99.90
18337;DHT22;9294;51.106;7.028;2023-08-12T00:04:15;22.70;99.90
18337;DHT22;9294;51.106;7.028;2023-08-12T00:06:42;22.70;99.90
18337;DHT22;9294;51.106;7.028;2023-08-12T00:09:09;22.70;99.90
18337;DHT22;9294;51.106;7.028;2023-08-12T00:11:37;22.70;99.90
18337;DHT22;9294;51.106;7.028;2023-08-12T00:14:04;22.70;99.90
18337;DHT22;9294;51.106;7.028;2023-08-12T00:16:33;22.70;99.90
18337;DHT22;9294;51.106;7.028;2023-08-12T00:19:00;22.70;99.90
18337;DHT22;9294;51.106;7.028;2023-08-12T00:21:27;22.70;99.90
18337;DHT22;9294;51.106;7.028;2023-08-12T00:23:54;22.70;99.90
18337;DHT22;9294;51.106;7.028;2023-08-12T00:26:21;22.70;99.90
18337;DHT22;9294;51.106;7.028;2023-08-12T00:28:49;22.70;99.90
18337;DHT22;9294;51.106;7.028;2023-08-12T00:31:17;22.70;99.90
18337;DHT22;9294;51.106;7.028;2023-08-12T00:33:45;22.70;99.90
18337;DHT22;9294;51.106;7.028;2023-08-12T00:36:12;22.70;99.90
18337;DHT22;9294;51.106;7.028;2023-08-12T00:38:39;22.70;99.90
18337;DHT22;9294;51.106;7.028;2023-08-12T00:41:06;22.70;99.90
18337;DHT22;9294;51.106;7.028;2023-08-12T00:43:33;22.70;99.90
18337;DHT22;9294;51.106;7.028;2023-08-12T00:46:00;22.70;99.90
18337;DHT22;9294;51.106;7.028;2023-08-12T00:48:28;22.70;99.90
18337;DHT22;9294;51.106;7.028;2023-08-12T00:50:56;22.70;99.90
18337;DHT22;9294;51.106;7.028;2023-08-12T00:53:23;22.80;99.90
18337;DHT22;9294;51.106;7.028;2023-08-12T00:55:51;22.70;99.90
18337;DHT22;9294;51.106;7.028;2023-08-12T00:58:18;22.70;99.90
18337;DHT22;9294;51.106;7.028;2023-08-12T01:00:46;22.70;99.90
18337;DHT22;9294;51.106;7.028;2023-08-12T01:03:13;22.70;99.90
18337;DHT22;9294;51.106;7.028;2023-08-12T01:05:40;22.70;99.90
18337;DHT22;9294;51.106;7.028;2023-08-12T01:08:09;22.70;99.90
18337;DHT22;9294;51.106;7.028;2023-08-12T01:10:38;22.70;99.90
18337;DHT22;9294;51.106;7.028;2023-08-12T01:13:13;22.70;99.90
18337;DHT22;9294;51.106;7.028;2023-08-12T01:15:45;22.70;99.90
18337;DHT22;9294;51.106;7.028;2023-08-12T01:18:14;22.70;99.90
18337;DHT22;9294;51.106;7.028;2023-08-12T01:20:41;22.70;99.90
18337;DHT22;9294;51.106;7.028;2023-08-12T01:23:13;22.70;99.90
18337;DHT22;9294;51.106;7.028;2023-08-12T01:25:41;22.70;99.90
18337;DHT22;9294;51.106;7.028;2023-08-12T01:28:08;22.70;99.90
18337;DHT22;9294;51.106;7.028;2023-08-12T01:30:39;22.70;99.90
18337;DHT22;9294;51.106;7.028;2023-08-12T01:33:14;22.70;99.90
18337;DHT22;9294;51.106;7.028;2023-08-12T01:35:49;22.70;99.90
18337;DHT22;9294;51.106;7.028;2023-08-12T01:38:19;22.70;99.90
18337;DHT22;9294;51.106;7.028;2023-08-12T01:40:49;22.70;99.90
18337;DHT22;9294;51.106;7.028;2023-08-12T01:43:16;22.70;99.90
18337;DHT22;9294;51.106;7.028;2023-08-12T01:45:44;22.70;99.90
18337;DHT22;9294;51.106;7.028;2023-08-12T01:48:11;22.80;99.90
18337;DHT22;9294;51.106;7.028;2023-08-12T01:50:38;22.80;99.90
18337;DHT22;9294;51.106;7.028;2023-08-12T01:53:05;22.70;99.90
18337;DHT22;9294;51.106;7.028;2023-08-12T01:55:33;22.70;99.90
18337;DHT22;9294;51.106;7.028;2023-08-12T01:58:00;22.70;99.90
18337;DHT22;9294;51.106;7.028;2023-08-12T02:00:27;22.80;99.90
18337;DHT22;9294;51.106;7.028;2023-08-12T02:02:54;22.80;99.90
18337;DHT22;9294;51.106;7.028;2023-08-12T02:05:21;22.80;99.90
18337;DHT22;9294;51.106;7.028;2023-08-12T02:07:48;22.80;99.90
18337;DHT22;9294;51.106;7.028;2023-08-12T02:10:15;22.80;99.90
18337;DHT22;9294;51.106;7.028;2023-08-12T02:12:44;22.80;99.90
18337;DHT22;9294;51.106;7.028;2023-08-12T02:15:11;22.80;99.90
18337;DHT22;9294;51.106;7.028;2023-08-12T02:17:38;22.80;99.90
18337;DHT22;9294;51.106;7.028;2023-08-12T02:20:06;22.80;99.90
18337;DHT22;9294;51.106;7.028;2023-08-12T02:22:33;22.80;99.90
18337;DHT22;9294;51.106;7.028;2023-08-12T02:25:00;22.70;99.90
18337;DHT22;9294;51.106;7.028;2023-08-12T02:27:27;22.80;99.90
18337;DHT22;9294;51.106;7.028;2023-08-12T02:29:55;22.80;99.90
18337;DHT22;9294;51.106;7.028;2023-08-12T02:32:22;22.80;99.90
18337;DHT22;9294;51.106;7.028;2023-08-12T02:34:49;22.80;99.90
18337;DHT22;9294;51.106;7.028;2023-08-12T02:37:16;22.80;99.90
18337;DHT22;9294;51.106;7.028;2023-08-12T02:39:43;22.80;99.90
18337;DHT22;9294;51.106;7.028;2023-08-12T02:42:10;22.80;99.90
18337;DHT22;9294;51.106;7.028;2023-08-12T02:44:37;22.80;99.90
18337;DHT22;9294;51.106;7.028;2023-08-12T02:47:06;22.80;99.90
18337;DHT22;9294;51.106;7.028;2023-08-12T02:49:33;22.80;99.90
18337;DHT22;9294;51.106;7.028;2023-08-12T02:52:00;22.80;99.90
18337;DHT22;9294;51.106;7.028;2023-08-12T02:54:27;22.80;99.90
18337;DHT22;9294;51.106;7.028;2023-08-12T02:56:54;22.80;99.90
18337;DHT22;9294;51.106;7.028;2023-08-12T02:59:21;22.80;99.90
18337;DHT22;9294;51.106;7.028;2023-08-12T03:01:50;22.80;99.90
18337;DHT22;9294;51.106;7.028;2023-08-12T03:04:19;22.80;99.90
18337;DHT22;9294;51.106;7.028;2023-08-12T03:06:46;22.80;99.90
18337;DHT22;9294;51.106;7.028;2023-08-12T03:09:13;22.80;99.90
18337;DHT22;9294;51.106;7.028;2023-08-12T03:11:40;22.80;99.90
18337;DHT22;9294;51.106;7.028;2023-08-12T03:14:07;22.80;99.90
18337;DHT22;9294;51.106;7.028;2023-08-12T03:16:35;22.80;99.90
18337;DHT22;9294;51.106;7.028;2023-08-12T03:19:02;22.80;99.90
18337;DHT22;9294;51.106;7.028;2023-08-12T03:21:30;22.80;99.90
18337;DHT22;9294;51.106;7.028;2023-08-12T03:23:57;22.80;99.90
18337;DHT22;9294;51.106;7.028;2023-08-12T03:26:24;22.80;99.90
18337;DHT22;9294;51.106;7.028;2023-08-12T03:28:51;22.80;99.90
18337;DHT22;9294;51.106;7.028;2023-08-12T03:31:18;22.80;99.90
18337;DHT22;9294;51.106;7.028;2023-08-12T03:33:45;22.80;99.90
18337;DHT22;9294;51.106;7.028;2023-08-12T03:36:12;22.80;99.90
18337;DHT22;9294;51.106;7.028;2023-08-12T03:38:40;22.80;99.90
18337;DHT22;9294;51.106;7.028;2023-08-12T03:41:08;22.80;99.90
18337;DHT22;9294;51.106;7.028;2023-08-12T03:43:35;22.80;99.90
18337;DHT22;9294;51.106;7.028;2023-08-12T03:46:03;22.80;99.90
18337;DHT22;9294;51.106;7.028;2023-08-12T03:48:30;22.80;99.90
18337;DHT22;9294;51.106;7.028;2023-08-12T03:50:57;22.80;99.90
18337;DHT22;9294;51.106;7.028;2023-08-12T03:53:24;22.80;99.90
18337;DHT22;9294;51.106;7.028;2023-08-12T03:55:52;22.80;99.90
18337;DHT22;9294;51.106;7.028;2023-08-12T03:58:19;22.80;99.90
18337;DHT22;9294;51.106;7.028;2023-08-12T04:00:46;22.80;99.90
18337;DHT22;9294;51.106;7.028;2023-08-12T04:03:13;22.80;99.90
18337;DHT22;9294;51.106;7.028;2023-08-12T04:05:47;22.80;99.90
18337;DHT22;9294;51.106;7.028;2023-08-12T04:08:15;22.80;99.90
18337;DHT22;9294;51.106;7.028;2023-08-12T04:10:45;22.80;99.90
18337;DHT22;9294;51.106;7.028;2023-08-12T04:13:14;22.80;99.90
18337;DHT22;9294;51.106;7.028;2023-08-12T04:15:42;22.80;99.90
18337;DHT22;9294;51.106;7.028;2023-08-12T04:18:09;22.80;99.90
18337;DHT22;9294;51.106;7.028;2023-08-12T04:20:37;22.80;99.90
18337;DHT22;9294;51.106;7.028;2023-08-12T04:23:05;22.80;99.90
18337;DHT22;9294;51.106;7.028;2023-08-12T04:25:32;22.80;99.90
18337;DHT22;9294;51.106;7.028;2023-08-12T04:27:59;22.80;99.90
18337;DHT22;9294;51.106;7.028;2023-08-12T04:30:27;22.80;99.90
18337;DHT22;9294;51.106;7.028;2023-08-12T04:32:54;22.80;99.90
18337;DHT22;9294;51.106;7.028;2023-08-12T04:35:22;22.80;99.90
18337;DHT22;9294;51.106;7.028;2023-08-12T04:37:49;22.80;99.90
18337;DHT22;9294;51.106;7.028;2023-08-12T04:40:16;22.80;99.90
18337;DHT22;9294;51.106;7.028;2023-08-12T04:42:43;22.80;99.90
18337;DHT22;9294;51.106;7.028;2023-08-12T04:45:10;22.80;99.90
18337;DHT22;9294;51.106;7.028;2023-08-12T04:47:38;22.80;99.90
18337;DHT22;9294;51.106;7.028;2023-08-12T04:50:06;22.80;99.90
18337;DHT22;9294;51.106;7.028;2023-08-12T04:52:33;22.80;99.90
18337;DHT22;9294;51.106;7.028;2023-08-12T04:55:00;22.80;99.90
18337;DHT22;9294;51.106;7.028;2023-08-12T04:57:28;22.80;99.90
18337;DHT22;9294;51.106;7.028;2023-08-12T04:59:56;22.80;99.90
18337;DHT22;9294;51.106;7.028;2023-08-12T05:02:23;22.80;99.90
18337;DHT22;9294;51.106;7.028;2023-08-12T05:04:51;22.80;99.90
18337;DHT22;9294;51.106;7.028;2023-08-12T05:07:18;22.80;99.90
18337;DHT22;9294;51.106;7.028;2023-08-12T05:09:45;22.80;99.90
18337;DHT22;9294;51.106;7.028;2023-08-12T05:12:12;22.80;99.90
18337;DHT22;9294;51.106;7.028;2023-08-12T05:14:40;22.80;99.90
18337;DHT22;9294;51.106;7.028;2023-08-12T05:17:07;22.80;99.90
18337;DHT22;9294;51.106;7.028;2023-08-12T05:19:34;22.80;99.90
18337;DHT22;9294;51.106;7.028;2023-08-12T05:22:02;22.80;99.90
18337;DHT22;9294;51.106;7.028;2023-08-12T05:24:29;22.80;99.90
18337;DHT22;9294;51.106;7.028;2023-08-12T05:26:56;22.80;99.90
18337;DHT22;9294;51.106;7.028;2023-08-12T05:29:24;22.80;99.90
18337;DHT22;9294;51.106;7.028;2023-08-12T05:31:51;22.80;99.90
18337;DHT22;9294;51.106;7.028;2023-08-12T05:34:18;22.80;99.90
18337;DHT22;9294;51.106;7.028;2023-08-12T05:36:45;22.80;99.90
18337;DHT22;9294;51.106;7.028;2023-08-12T05:39:13;22.80;99.90
18337;DHT22;9294;51.106;7.028;2023-08-12T05:41:41;22.80;99.90
18337;DHT22;9294;51.106;7.028;2023-08-12T05:44:08;22.80;99.90
18337;DHT22;9294;51.106;7.028;2023-08-12T05:46:35;22.90;99.90
18337;DHT22;9294;51.106;7.028;2023-08-12T05:49:02;22.90;99.90
18337;DHT22;9294;51.106;7.028;2023-08-12T05:51:29;22.90;99.90
18337;DHT22;9294;51.106;7.028;2023-08-12T05:53:56;22.90;99.90
18337;DHT22;9294;51.106;7.028;2023-08-12T05:56:25;22.90;99.90
18337;DHT22;9294;51.106;7.028;2023-08-12T05:58:52;22.90;99.90
18337;DHT22;9294;51.106;7.028;2023-08-12T06:01:19;22.90;99.90
18337;DHT22;9294;51.106;7.028;2023-08-12T06:03:46;22.80;99.90
18337;DHT22;9294;51.106;7.028;2023-08-12T06:06:13;22.80;99.90
18337;DHT22;9294;51.106;7.028;2023-08-12T06:08:40;22.80;99.90
18337;DHT22;9294;51.106;7.028;2023-08-12T06:11:07;22.80;99.90
18337;DHT22;9294;51.106;7.028;2023-08-12T06:13:35;22.80;99.90
18337;DHT22;9294;51.106;7.028;2023-08-12T06:16:02;22.80;99.90
18337;DHT22;9294;51.106;7.028;2023-08-12T06:18:30;22.80;99.90
18337;DHT22;9294;51.106;7.028;2023-08-12T06:20:57;22.80;99.90
18337;DHT22;9294;51.106;7.028;2023-08-12T06:23:24;22.80;99.90
18337;DHT22;9294;51.106;7.028;2023-08-12T06:25:51;22.80;99.90
18337;DHT22;9294;51.106;7.028;2023-08-12T06:28:18;22.80;99.90
18337;DHT22;9294;51.106;7.028;2023-08-12T06:30:46;22.80;99.90
18337;DHT22;9294;51.106;7.028;2023-08-12T06:33:14;22.80;99.90
18337;DHT22;9294;51.106;7.028;2023-08-12T06:35:42;22.80;99.90
18337;DHT22;9294;51.106;7.028;2023-08-12T06:38:09;22.80;99.90
18337;DHT22;9294;51.106;7.028;2023-08-12T06:40:38;22.80;99.90
18337;DHT22;9294;51.106;7.028;2023-08-12T06:43:05;22.80;99.90
18337;DHT22;9294;51.106;7.028;2023-08-12T06:45:32;22.90;99.90
18337;DHT22;9294;51.106;7.028;2023-08-12T06:48:01;22.90;99.90
18337;DHT22;9294;51.106;7.028;2023-08-12T06:50:28;23.00;99.90
18337;DHT22;9294;51.106;7.028;2023-08-12T06:52:56;23.00;99.90
18337;DHT22;9294;51.106;7.028;2023-08-12T06:55:23;23.00;99.90
18337;DHT22;9294;51.106;7.028;2023-08-12T06:57:50;23.10;99.90
18337;DHT22;9294;51.106;7.028;2023-08-12T07:00:17;23.10;99.90
18337;DHT22;9294;51.106;7.028;2023-08-12T07:02:44;23.10;99.90
18337;DHT22;9294;51.106;7.028;2023-08-12T07:05:12;23.10;99.90
18337;DHT22;9294;51.106;7.028;2023-08-12T07:07:42;23.10;99.90
18337;DHT22;9294;51.106;7.028;2023-08-12T07:10:09;23.10;99.90
18337;DHT22;9294;51.106;7.028;2023-08-12T07:12:36;23.10;99.90
18337;DHT22;9294;51.106;7.028;2023-08-12T07:15:04;23.10;99.90
18337;DHT22;9294;51.106;7.028;2023-08-12T07:17:31;23.10;99.90
18337;DHT22;9294;51.106;7.028;2023-08-12T07:19:58;23.20;99.90
18337;DHT22;9294;51.106;7.028;2023-08-12T07:22:27;23.20;99.90
18337;DHT22;9294;51.106;7.028;2023-08-12T07:24:54;23.20;99.90
18337;DHT22;9294;51.106;7.028;2023-08-12T07:27:21;23.20;99.90
18337;DHT22;9294;51.106;7.028;2023-08-12T07:29:48;23.20;99.90
18337;DHT22;9294;51.106;7.028;2023-08-12T07:32:15;23.20;99.90
18337;DHT22;9294;51.106;7.028;2023-08-12T07:34:42;23.20;99.90
18337;DHT22;9294;51.106;7.028;2023-08-12T07:37:09;23.20;99.90
18337;DHT22;9294;51.106;7.028;2023-08-12T07:39:37;23.20;99.90
18337;DHT22;9294;51.106;7.028;2023-08-12T07:42:04;23.20;99.90
18337;DHT22;9294;51.106;7.028;2023-08-12T07:44:31;23.20;99.90
18337;DHT22;9294;51.106;7.028;2023-08-12T07:46:58;23.20;99.90
18337;DHT22;9294;51.106;7.028;2023-08-12T07:49:25;23.20;99.90
18337;DHT22;9294;51.106;7.028;2023-08-12T07:51:52;23.20;99.90
18337;DHT22;9294;51.106;7.028;2023-08-12T07:54:19;23.20;99.90
18337;DHT22;9294;51.106;7.028;2023-08-12T07:56:48;23.20;99.90
18337;DHT22;9294;51.106;7.028;2023-08-12T07:59:15;23.20;99.90
18337;DHT22;9294;51.106;7.028;2023-08-12T08:01:42;23.20;99.90
18337;DHT22;9294;51.106;7.028;2023-08-12T08:04:09;23.20;99.90
18337;DHT22;9294;51.106;7.028;2023-08-12T08:06:36;23.20;99.90
18337;DHT22;9294;51.106;7.028;2023-08-12T08:09:03;23.20;99.90
18337;DHT22;9294;51.106;7.028;2023-08-12T08:11:31;23.20;99.90
18337;DHT22;9294;51.106;7.028;2023-08-12T08:14:01;23.20;99.90
18337;DHT22;9294;51.106;7.028;2023-08-12T08:16:28;23.20;99.90
18337;DHT22;9294;51.106;7.028;2023-08-12T08:18:56;23.30;99.90
18337;DHT22;9294;51.106;7.028;2023-08-12T08:21:23;23.30;99.90
18337;DHT22;9294;51.106;7.028;2023-08-12T08:23:50;23.30;99.90
18337;DHT22;9294;51.106;7.028;2023-08-12T08:26:17;23.20;99.90
18337;DHT22;9294;51.106;7.028;2023-08-12T08:28:44;23.30;99.90
18337;DHT22;9294;51.106;7.028;2023-08-12T08:31:12;23.30;99.90
18337;DHT22;9294;51.106;7.028;2023-08-12T08:33:39;23.30;99.90
18337;DHT22;9294;51.106;7.028;2023-08-12T08:36:06;23.30;99.90
18337;DHT22;9294;51.106;7.028;2023-08-12T08:38:33;23.30;99.90
18337;DHT22;9294;51.106;7.028;2023-08-12T08:41:01;23.30;99.90
18337;DHT22;9294;51.106;7.028;2023-08-12T08:43:29;23.30;99.90
18337;DHT22;9294;51.106;7.028;2023-08-12T08:45:56;23.30;99.90
18337;DHT22;9294;51.106;7.028;2023-08-12T08:48:25;23.30;99.90
18337;DHT22;9294;51.106;7.028;2023-08-12T08:50:54;23.30;99.90
18337;DHT22;9294;51.106;7.028;2023-08-12T08:53:21;23.30;99.90
18337;DHT22;9294;51.106;7.028;2023-08-12T08:55:48;23.30;99.90
18337;DHT22;9294;51.106;7.028;2023-08-12T08:58:16;23.30;99.90
18337;DHT22;9294;51.106;7.028;2023-08-12T09:00:43;23.40;99.90
18337;DHT22;9294;51.106;7.028;2023-08-12T09:03:10;23.30;99.90
18337;DHT22;9294;51.106;7.028;2023-08-12T09:05:40;23.30;99.90
18337;DHT22;9294;51.106;7.028;2023-08-12T09:08:08;23.30;99.90
18337;DHT22;9294;51.106;7.028;2023-08-12T09:10:38;23.30;99.90
18337;DHT22;9294;51.106;7.028;2023-08-12T09:13:07;23.30;99.90
18337;DHT22;9294;51.106;7.028;2023-08-12T09:15:34;23.30;99.90
18337;DHT22;9294;51.106;7.028;2023-08-12T09:18:02;23.30;99.90
18337;DHT22;9294;51.106;7.028;2023-08-12T09:20:32;23.30;99.90
18337;DHT22;9294;51.106;7.028;2023-08-12T09:23:01;23.30;99.90
18337;DHT22;9294;51.106;7.028;2023-08-12T09:25:28;23.30;99.90
18337;DHT22;9294;51.106;7.028;2023-08-12T09:27:59;23.30;99.90
18337;DHT22;9294;51.106;7.028;2023-08-12T09:30:29;23.40;99.90
18337;DHT22;9294;51.106;7.028;2023-08-12T09:33:00;23.30;99.90
18337;DHT22;9294;51.106;7.028;2023-08-12T09:35:33;23.30;99.90
18337;DHT22;9294;51.106;7.028;2023-08-12T09:38:03;23.30;99.90
18337;DHT22;9294;51.106;7.028;2023-08-12T09:40:31;23.20;99.90
18337;DHT22;9294;51.106;7.028;2023-08-12T09:42:58;23.20;99.90
18337;DHT22;9294;51.106;7.028;2023-08-12T09:45:26;23.20;99.90
18337;DHT22;9294;51.106;7.028;2023-08-12T09:47:54;23.30;99.90
18337;DHT22;9294;51.106;7.028;2023-08-12T09:50:21;23.20;99.90
18337;DHT22;9294;51.106;7.028;2023-08-12T09:52:49;23.20;99.90
18337;DHT22;9294;51.106;7.028;2023-08-12T09:55:19;23.20;99.90
18337;DHT22;9294;51.106;7.028;2023-08-12T09:57:49;23.20;99.90
18337;DHT22;9294;51.106;7.028;2023-08-12T10:00:18;23.20;99.90
18337;DHT22;9294;51.106;7.028;2023-08-12T10:02:46;23.20;99.90
18337;DHT22;9294;51.106;7.028;2023-08-12T10:05:19;23.20;99.90
18337;DHT22;9294;51.106;7.028;2023-08-12T10:07:47;23.20;99.90
18337;DHT22;9294;51.106;7.028;2023-08-12T10:10:14;23.20;99.90
18337;DHT22;9294;51.106;7.028;2023-08-12T10:12:43;23.20;99.90
18337;DHT22;9294;51.106;7.028;2023-08-12T10:15:11;23.20;99.90
18337;DHT22;9294;51.106;7.028;2023-08-12T10:17:38;23.20;99.90
18337;DHT22;9294;51.106;7.028;2023-08-12T10:20:08;23.30;99.90
18337;DHT22;9294;51.106;7.028;2023-08-12T10:22:36;23.20;99.90
18337;DHT22;9294;51.106;7.028;2023-08-12T10:25:07;23.20;99.90
18337;DHT22;9294;51.106;7.028;2023-08-12T10:27:36;23.30;99.90
18337;DHT22;9294;51.106;7.028;2023-08-12T10:30:06;23.40;99.90
18337;DHT22;9294;51.106;7.028;2023-08-12T10:32:33;23.40;99.90
18337;DHT22;9294;51.106;7.028;2023-08-12T10:35:00;23.40;99.90
18337;DHT22;9294;51.106;7.028;2023-08-12T10:37:32;23.40;99.90
18337;DHT22;9294;51.106;7.028;2023-08-12T10:40:03;23.40;99.90
18337;DHT22;9294;51.106;7.028;2023-08-12T10:42:42;23.40;99.90
18337;DHT22;9294;51.106;7.028;2023-08-12T10:45:12;23.40;99.90
18337;DHT22;9294;51.106;7.028;2023-08-12T10:47:41;23.40;99.90
18337;DHT22;9294;51.106;7.028;2023-08-12T10:50:19;23.40;99.90
18337;DHT22;9294;51.106;7.028;2023-08-12T10:52:47;23.40;99.90
18337;DHT22;9294;51.106;7.028;2023-08-12T10:55:21;23.40;99.90
18337;DHT22;9294;51.106;7.028;2023-08-12T10:57:49;23.40;99.90
18337;DHT22;9294;51.106;7.028;2023-08-12T11:00:19;23.40;99.90
18337;DHT22;9294;51.106;7.028;2023-08-12T11:02:49;23.30;99.90
18337;DHT22;9294;51.106;7.028;2023-08-12T11:05:17;23.30;99.90
18337;DHT22;9294;51.106;7.028;2023-08-12T11:07:47;23.30;99.90
18337;DHT22;9294;51.106;7.028;2023-08-12T11:10:16;23.30;99.90
18337;DHT22;9294;51.106;7.028;2023-08-12T11:12:48;23.30;99.90
18337;DHT22;9294;51.106;7.028;2023-08-12T11:15:29;23.30;99.90
18337;DHT22;9294;51.106;7.028;2023-08-12T11:17:57;23.30;99.90
18337;DHT22;9294;51.106;7.028;2023-08-12T11:20:24;23.30;99.90
18337;DHT22;9294;51.106;7.028;2023-08-12T11:22:52;23.30;99.90
18337;DHT22;9294;51.106;7.028;2023-08-12T11:25:19;23.30;99.90
18337;DHT22;9294;51.106;7.028;2023-08-12T11:27:47;23.30;99.90
18337;DHT22;9294;51.106;7.028;2023-08-12T11:30:16;23.30;99.90
18337;DHT22;9294;51.106;7.028;2023-08-12T11:32:45;23.30;99.90
18337;DHT22;9294;51.106;7.028;2023-08-12T11:35:14;23.30;99.90
18337;DHT22;9294;51.106;7.028;2023-08-12T11:37:42;23.30;99.90
18337;DHT22;9294;51.106;7.028;2023-08-12T11:40:11;23.30;99.90
18337;DHT22;9294;51.106;7.028;2023-08-12T11:42:41;23.30;99.90
18337;DHT22;9294;51.106;7.028;2023-08-12T11:45:09;23.30;99.90
18337;DHT22;9294;51.106;7.028;2023-08-12T11:47:37;23.30;99.90
18337;DHT22;9294;51.106;7.028;2023-08-12T11:50:07;23.30;99.90
18337;DHT22;9294;51.106;7.028;2023-08-12T11:52:35;23.30;99.90
18337;DHT22;9294;51.106;7.028;2023-08-12T11:55:03;23.40;99.90
18337;DHT22;9294;51.106;7.028;2023-08-12T11:57:31;23.40;99.90
18337;DHT22;9294;51.106;7.028;2023-08-12T12:00:00;23.40;99.90
18337;DHT22;9294;51.106;7.028;2023-08-12T12:02:28;23.40;99.90
18337;DHT22;9294;51.106;7.028;2023-08-12T12:04:55;23.30;99.90
18337;DHT22;9294;51.106;7.028;2023-08-12T12:07:25;23.30;99.90
18337;DHT22;9294;51.106;7.028;2023-08-12T12:09:53;23.30;99.90
18337;DHT22;9294;51.106;7.028;2023-08-12T12:12:22;23.30;99.90
18337;DHT22;9294;51.106;7.028;2023-08-12T12:14:51;23.30;99.90
18337;DHT22;9294;51.106;7.028;2023-08-12T12:17:21;23.30;99.90
18337;DHT22;9294;51.106;7.028;2023-08-12T12:19:52;23.30;99.90
18337;DHT22;9294;51.106;7.028;2023-08-12T12:22:27;23.30;99.90
18337;DHT22;9294;51.106;7.028;2023-08-12T12:24:58;23.30;99.90
18337;DHT22;9294;51.106;7.028;2023-08-12T12:27:26;23.30;99.90
18337;DHT22;9294;51.106;7.028;2023-08-12T12:29:53;23.40;99.90
18337;DHT22;9294;51.106;7.028;2023-08-12T12:32:20;23.50;99.90
18337;DHT22;9294;51.106;7.028;2023-08-12T12:34:47;23.40;99.90
18337;DHT22;9294;51.106;7.028;2023-08-12T12:37:15;23.50;99.90
18337;DHT22;9294;51.106;7.028;2023-08-12T12:39:43;23.50;99.90
18337;DHT22;9294;51.106;7.028;2023-08-12T12:42:10;23.50;99.90
18337;DHT22;9294;51.106;7.028;2023-08-12T12:44:38;23.50;99.90
18337;DHT22;9294;51.106;7.028;2023-08-12T12:47:05;23.40;99.90
18337;DHT22;9294;51.106;7.028;2023-08-12T12:49:32;23.40;99.90
18337;DHT22;9294;51.106;7.028;2023-08-12T12:51:59;23.40;99.90
18337;DHT22;9294;51.106;7.028;2023-08-12T12:54:26;23.40;99.90
18337;DHT22;9294;51.106;7.028;2023-08-12T12:56:54;23.50;99.90
18337;DHT22;9294;51.106;7.028;2023-08-12T12:59:21;23.40;99.90
18337;DHT22;9294;51.106;7.028;2023-08-12T13:01:48;23.50;99.90
18337;DHT22;9294;51.106;7.028;2023-08-12T13:04:15;23.40;99.90
18337;DHT22;9294;51.106;7.028;2023-08-12T13:06:42;23.50;99.90
18337;DHT22;9294;51.106;7.028;2023-08-12T13:09:09;23.50;99.90
18337;DHT22;9294;51.106;7.028;2023-08-12T13:11:36;23.50;99.90
18337;DHT22;9294;51.106;7.028;2023-08-12T13:14:05;23.50;99.90
18337;DHT22;9294;51.106;7.028;2023-08-12T13:16:32;23.40;99.90
18337;DHT22;9294;51.106;7.028;2023-08-12T13:18:59;23.40;99.90
18337;DHT22;9294;51.106;7.028;2023-08-12T13:21:26;23.40;99.90
18337;DHT22;9294;51.106;7.028;2023-08-12T13:23:53;23.40;99.90
18337;DHT22;9294;51.106;7.028;2023-08-12T13:26:20;23.40;99.90
18337;DHT22;9294;51.106;7.028;2023-08-12T13:28:47;23.40;99.90
18337;DHT22;9294;51.106;7.028;2023-08-12T13:31:16;23.40;99.90
18337;DHT22;9294;51.106;7.028;2023-08-12T13:33:43;23.40;99.90
18337;DHT22;9294;51.106;7.028;2023-08-12T13:36:11;23.40;99.90
18337;DHT22;9294;51.106;7.028;2023-08-12T13:38:38;23.40;99.90
18337;DHT22;9294;51.106;7.028;2023-08-12T13:41:05;23.40;99.90
18337;DHT22;9294;51.106;7.028;2023-08-12T13:43:32;23.40;99.90
18337;DHT22;9294;51.106;7.028;2023-08-12T13:46:00;23.40;99.90
18337;DHT22;9294;51.106;7.028;2023-08-12T13:48:29;23.40;99.90
18337;DHT22;9294;51.106;7.028;2023-08-12T13:50:56;23.40;99.90
18337;DHT22;9294;51.106;7.028;2023-08-12T13:53:23;23.40;99.90
18337;DHT22;9294;51.106;7.028;2023-08-12T13:55:50;23.40;99.90
18337;DHT22;9294;51.106;7.028;2023-08-12T13:58:17;23.40;99.90
18337;DHT22;9294;51.106;7.028;2023-08-12T14:00:44;23.40;99.90
18337;DHT22;9294;51.106;7.028;2023-08-12T14:03:12;23.40;99.90
18337;DHT22;9294;51.106;7.028;2023-08-12T14:05:41;23.40;99.90
18337;DHT22;9294;51.106;7.028;2023-08-12T14:08:08;23.40;99.90
18337;DHT22;9294;51.106;7.028;2023-08-12T14:10:35;23.40;99.90
18337;DHT22;9294;51.106;7.028;2023-08-12T14:13:03;23.40;99.90
18337;DHT22;9294;51.106;7.028;2023-08-12T14:15:30;23.40;99.90
18337;DHT22;9294;51.106;7.028;2023-08-12T14:17:57;23.50;99.90
18337;DHT22;9294;51.106;7.028;2023-08-12T14:20:24;23.50;99.90
18337;DHT22;9294;51.106;7.028;2023-08-12T14:22:52;23.50;99.90
18337;DHT22;9294;51.106;7.028;2023-08-12T14:25:19;23.50;99.90
18337;DHT22;9294;51.106;7.028;2023-08-12T14:27:46;23.50;99.90
18337;DHT22;9294;51.106;7.028;2023-08-12T14:30:13;23.50;99.90
18337;DHT22;9294;51.106;7.028;2023-08-12T14:32:40;23.50;99.90
18337;DHT22;9294;51.106;7.028;2023-08-12T14:35:08;23.60;99.90
18337;DHT22;9294;51.106;7.028;2023-08-12T14:37:35;23.50;99.90
18337;DHT22;9294;51.106;7.028;2023-08-12T14:40:04;23.50;99.90
18337;DHT22;9294;51.106;7.028;2023-08-12T14:42:31;23.50;99.90
18337;DHT22;9294;51.106;7.028;2023-08-12T14:44:58;23.50;99.90
18337;DHT22;9294;51.106;7.028;2023-08-12T14:47:25;23.50;99.90
18337;DHT22;9294;51.106;7.028;2023-08-12T14:49:52;23.50;99.90
18337;DHT22;9294;51.106;7.028;2023-08-12T14:52:20;23.50;99.90
18337;DHT22;9294;51.106;7.028;2023-08-12T14:54:48;23.50;99.90
18337;DHT22;9294;51.106;7.028;2023-08-12T14:57:16;23.60;99.90
18337;DHT22;9294;51.106;7.028;2023-08-12T14:59:43;23.60;99.90
18337;DHT22;9294;51.106;7.028;2023-08-12T15:02:16;23.60;99.90
18337;DHT22;9294;51.106;7.028;2023-08-12T15:04:43;23.60;99.90
18337;DHT22;9294;51.106;7.028;2023-08-12T15:07:10;23.60;99.90
18337;DHT22;9294;51.106;7.028;2023-08-12T15:09:37;23.60;99.90
18337;DHT22;9294;51.106;7.028;2023-08-12T15:12:05;23.60;99.90
18337;DHT22;9294;51.106;7.028;2023-08-12T15:14:33;23.60;99.90
18337;DHT22;9294;51.106;7.028;2023-08-12T15:17:00;23.60;99.90
18337;DHT22;9294;51.106;7.028;2023-08-12T15:19:27;23.60;99.90
18337;DHT22;9294;51.106;7.028;2023-08-12T15:21:54;23.60;99.90
18337;DHT22;9294;51.106;7.028;2023-08-12T15:24:21;23.70;99.90
18337;DHT22;9294;51.106;7.028;2023-08-12T15:26:48;23.70;99.90
18337;DHT22;9294;51.106;7.028;2023-08-12T15:29:15;23.70;99.90
18337;DHT22;9294;51.106;7.028;2023-08-12T15:31:43;23.60;99.90
18337;DHT22;9294;51.106;7.028;2023-08-12T15:34:10;23.60;99.90
18337;DHT22;9294;51.106;7.028;2023-08-12T15:36:37;23.60;99.90
18337;DHT22;9294;51.106;7.028;2023-08-12T15:39:06;23.60;99.90
18337;DHT22;9294;51.106;7.028;2023-08-12T15:41:33;23.50;99.90
18337;DHT22;9294;51.106;7.028;2023-08-12T15:44:00;23.50;99.90
18337;DHT22;9294;51.106;7.028;2023-08-12T15:46:27;23.50;99.90
18337;DHT22;9294;51.106;7.028;2023-08-12T15:48:56;23.50;99.90